STS Pogoria — SQKY — position and weather

sailwx.info

Track history (hours):
 
Tides and Currents Weather Stations Pressure Air Temp Water Temp Dewpoint Dewpoint Depression Visibility Wind Speed Wind Dir Waves Ship Positions

STS Pogoria

Last reported at 2018-Nov-09 04:45 UTC. Time now 2018-Dec-12 04:52 UTC.
Position N 43°48' E 007°56'.
Warning: this ship's position is 33 days out of date.

Length 47 m.

Type: Sailing vessel. MMSI: 261146000.

Date/timePositionNaut miles runAvg speedWind from/ knotsBaromVisibWave heightAir tempDewpointWater temp
2018-Nov-09 04:45N 43°48' E 007°56'1 4.5
2018-Nov-09 04:32N 43°48' E 007°55'2 4.7
2018-Nov-09 04:02N 43°46' E 007°52'3 5.0
2018-Nov-09 03:32N 43°45' E 007°50'2 4.9
2018-Nov-09 03:02N 43°43' E 007°47'2 5.0
2018-Nov-09 02:32N 43°42' E 007°44'3 5.1
2018-Nov-09 02:02N 43°40' E 007°42'2 4.9
2018-Nov-09 01:32N 43°38' E 007°39'2 4.6
2018-Nov-09 01:02N 43°37' E 007°37'2 4.3
2018-Nov-09 00:32N 43°36' E 007°34'2 4.0
2018-Nov-09 00:02N 43°34' E 007°32'2 3.9
2018-Nov-08 23:32N 43°33' E 007°30'2 4.1
2018-Nov-08 23:02N 43°32' E 007°28'2 4.2
2018-Nov-08 22:32N 43°31' E 007°26'2 4.0
2018-Nov-08 22:02N 43°29' E 007°24'3 5.5
2018-Nov-08 21:32N 43°26' E 007°24'1 2.5
2018-Nov-08 21:02N 43°27' E 007°24'2 3.1
2018-Nov-08 20:32N 43°29' E 007°24'1 2.8
2018-Nov-08 20:02N 43°30' E 007°24'2 3.4
2018-Nov-08 19:32N 43°32' E 007°24'1 1.9
2018-Nov-08 19:02N 43°33' E 007°24'1 1.7
2018-Nov-08 18:32N 43°34' E 007°24'1 2.4
2018-Nov-08 18:02N 43°35' E 007°24'2 3.0
2018-Nov-08 17:32N 43°36' E 007°23'1 2.8
2018-Nov-08 17:02N 43°37' E 007°22'1 1.7
2018-Nov-08 16:32N 43°38' E 007°21'1 1.6
2018-Nov-08 16:02N 43°39' E 007°21'1 2.0
2018-Nov-08 15:32N 43°40' E 007°20'3 5.4
2018-Nov-08 15:02N 43°42' E 007°17'0 0.2
2018-Nov-08 14:32N 43°42' E 007°17'0 0.0
2018-Nov-08 14:02N 43°42' E 007°17'0 0.0
2018-Nov-08 13:32N 43°42' E 007°17'0 0.0
2018-Nov-08 13:02N 43°42' E 007°17'0 0.0
2018-Nov-08 12:32N 43°42' E 007°17'0 0.0
2018-Nov-08 12:02N 43°42' E 007°17'0 0.0
2018-Nov-08 11:32N 43°42' E 007°17'0 0.0
2018-Nov-08 11:02N 43°42' E 007°17'0 0.0
2018-Nov-08 10:32N 43°42' E 007°17'0 0.0
2018-Nov-08 10:02N 43°42' E 007°17'0 0.0
2018-Nov-08 09:32N 43°42' E 007°17'0 0.0
2018-Nov-08 09:02N 43°42' E 007°17'0 0.0
2018-Nov-08 08:32N 43°42' E 007°17'0 0.0
2018-Nov-08 08:02N 43°42' E 007°17'0 0.0
2018-Nov-08 07:32N 43°42' E 007°17'0 0.0
2018-Nov-08 07:02N 43°42' E 007°17'0 0.0
2018-Nov-08 06:32N 43°42' E 007°17'0 0.0
2018-Nov-08 06:02N 43°42' E 007°17'0 0.0
2018-Nov-08 05:32N 43°42' E 007°17'0 0.0
2018-Nov-08 05:02N 43°42' E 007°17'0 0.0
2018-Nov-08 04:32N 43°42' E 007°17'0 0.0
2018-Nov-08 04:02N 43°42' E 007°17'0 0.0
2018-Nov-08 03:29N 43°42' E 007°17'0 0.0
2018-Nov-08 03:02N 43°42' E 007°17'0 0.0
2018-Nov-08 02:32N 43°42' E 007°17'0 0.0
2018-Nov-08 02:02N 43°42' E 007°17'0 0.0
2018-Nov-08 01:32N 43°42' E 007°17'0 0.0
2018-Nov-08 01:02N 43°42' E 007°17'0 0.0
2018-Nov-08 00:41N 43°42' E 007°17'0 0.0
2018-Nov-08 00:32N 43°42' E 007°17'0 0.0
2018-Nov-08 00:26N 43°42' E 007°17'0 0.0
2018-Nov-08 00:02N 43°42' E 007°17'0 0.0
2018-Nov-07 23:32N 43°42' E 007°17'0 0.0
2018-Nov-07 23:02N 43°42' E 007°17'0 0.0
2018-Nov-07 22:32N 43°42' E 007°17'0 0.0
2018-Nov-07 22:02N 43°42' E 007°17'0 0.0
2018-Nov-07 21:32N 43°42' E 007°17'0 0.0
2018-Nov-07 21:02N 43°42' E 007°17'0 0.0
2018-Nov-07 20:32N 43°42' E 007°17'0 0.0
2018-Nov-07 20:02N 43°42' E 007°17'0 0.0
2018-Nov-07 19:32N 43°42' E 007°17'0 0.0
2018-Nov-07 19:02N 43°42' E 007°17'0 0.0
2018-Nov-07 18:32N 43°42' E 007°17'0 0.0
2018-Nov-07 18:02N 43°42' E 007°17'0 0.0
2018-Nov-07 17:32N 43°42' E 007°17'0 0.0
2018-Nov-07 17:02N 43°42' E 007°17'0 0.0
2018-Nov-07 16:32N 43°42' E 007°17'0 0.0
2018-Nov-07 16:02N 43°42' E 007°17'0 0.0
2018-Nov-07 15:32N 43°42' E 007°17'0 0.1
2018-Nov-07 15:02N 43°42' E 007°17'1 2.4
2018-Nov-07 14:32N 43°42' E 007°19'0 0.7
2018-Nov-07 13:57N 43°42' E 007°19'0 0.0
2018-Nov-07 13:30N 43°42' E 007°19'0 0.0
2018-Nov-07 13:00N 43°42' E 007°19'0 0.0
2018-Nov-07 12:30N 43°42' E 007°19'0 0.0
2018-Nov-07 12:00N 43°42' E 007°19'0 0.0
2018-Nov-07 11:30N 43°42' E 007°19'0 0.0
2018-Nov-07 11:00N 43°42' E 007°19'0 0.0
2018-Nov-07 10:27N 43°42' E 007°19'0 0.0
2018-Nov-07 09:57N 43°42' E 007°19'0 0.0
2018-Nov-07 09:31N 43°42' E 007°19'0 0.7
2018-Nov-07 09:02N 43°42' E 007°19'2 4.0
2018-Nov-07 08:32N 43°40' E 007°20'3 5.5
2018-Nov-07 08:02N 43°38' E 007°22'3 5.6
2018-Nov-07 07:32N 43°36' E 007°25'3 5.7
2018-Nov-07 07:02N 43°34' E 007°28'3 5.2
2018-Nov-07 06:32N 43°32' E 007°30'3 5.3
2018-Nov-07 06:02N 43°30' E 007°32'3 5.7
2018-Nov-07 05:32N 43°28' E 007°35'3 5.4
2018-Nov-07 05:02N 43°26' E 007°38'3 5.2
2018-Nov-07 04:32N 43°24' E 007°40'61 1.4
2018-Nov-05 09:06N 44°08' E 008°39'0 6.2
2018-Nov-05 09:02N 44°08' E 008°39'0 6.5
2018-Nov-05 09:00N 44°08' E 008°39'3 6.0
2018-Nov-05 08:30N 44°11' E 008°38'3 5.7
2018-Nov-05 08:02N 44°14' E 008°38'0 6.4
2018-Nov-05 08:00N 44°14' E 008°38'3 5.8
2018-Nov-05 07:30N 44°17' E 008°40'3 6.6
2018-Nov-05 07:03N 44°19' E 008°43'0 6.4
2018-Nov-05 07:00N 44°19' E 008°43'3 6.5
2018-Nov-05 06:30N 44°22' E 008°46'3 6.3
2018-Nov-05 06:03N 44°24' E 008°47'0 6.7
2018-Nov-05 06:00N 44°25' E 008°48'2 3.3
2018-Nov-05 05:30N 44°25' E 008°50'0 0.0
2018-Nov-05 05:03N 44°25' E 008°50'0 0.0
2018-Nov-05 05:00N 44°25' E 008°50'0 0.0
2018-Nov-05 04:30N 44°25' E 008°50'0 0.0
2018-Nov-05 04:03N 44°25' E 008°50'0 0.1
2018-Nov-05 04:00N 44°25' E 008°50'0 0.0
2018-Nov-05 03:30N 44°25' E 008°50'0 0.0
2018-Nov-05 03:03N 44°25' E 008°50'0 0.0
2018-Nov-05 03:00N 44°25' E 008°50'0 0.0
2018-Nov-05 02:30N 44°25' E 008°50'0 0.0
2018-Nov-05 02:03N 44°25' E 008°50'0 0.0
2018-Nov-05 02:00N 44°25' E 008°50'0 0.0
2018-Nov-05 01:30N 44°25' E 008°50'0 0.0
2018-Nov-05 01:03N 44°25' E 008°50'0 0.0
2018-Nov-05 01:00N 44°25' E 008°50'0 0.0
2018-Nov-05 00:30N 44°25' E 008°50'0 0.0
2018-Nov-05 00:03N 44°25' E 008°50'0 0.0
2018-Nov-05 00:00N 44°25' E 008°50'0 0.0
2018-Nov-04 23:30N 44°25' E 008°50'0 0.0
2018-Nov-04 23:03N 44°25' E 008°50'0 0.0
2018-Nov-04 22:51N 44°25' E 008°50'0 0.0
2018-Nov-04 22:21N 44°25' E 008°50'0 0.0
2018-Nov-04 22:03N 44°25' E 008°50'0 0.0
2018-Nov-04 22:00N 44°25' E 008°50'0 0.0
2018-Nov-04 21:30N 44°25' E 008°50'0 0.0
2018-Nov-04 21:03N 44°25' E 008°50'0 0.0
2018-Nov-04 20:57N 44°25' E 008°50'0 0.0
2018-Nov-04 20:30N 44°25' E 008°50'0 0.0
2018-Nov-04 20:03N 44°25' E 008°50'0 0.0
2018-Nov-04 20:00N 44°25' E 008°50'0 0.0
2018-Nov-04 19:30N 44°25' E 008°50'0 0.0
2018-Nov-04 19:03N 44°25' E 008°50'0 0.0
2018-Nov-04 18:57N 44°25' E 008°50'0 0.0
2018-Nov-04 18:30N 44°25' E 008°50'0 0.0
2018-Nov-04 18:03N 44°25' E 008°50'0 0.0
2018-Nov-04 18:00N 44°25' E 008°50'0 0.0
2018-Nov-04 17:30N 44°25' E 008°50'0 0.0
2018-Nov-04 17:00N 44°25' E 008°50'0 0.0
2018-Nov-04 16:30N 44°25' E 008°50'0 0.0
2018-Nov-04 16:03N 44°25' E 008°50'0 0.0
2018-Nov-04 16:00N 44°25' E 008°50'0 0.0
2018-Nov-04 15:30N 44°25' E 008°50'0 0.0
2018-Nov-04 15:03N 44°25' E 008°50'0 0.0
2018-Nov-04 15:00N 44°25' E 008°50'0 0.0
2018-Nov-04 14:30N 44°25' E 008°50'0 0.0
2018-Nov-04 14:01N 44°25' E 008°50'0 0.0
2018-Nov-04 13:58N 44°25' E 008°50'0 0.0
2018-Nov-04 13:25N 44°25' E 008°50'0 0.0
2018-Nov-04 13:01N 44°25' E 008°50'0 0.0
2018-Nov-04 12:58N 44°25' E 008°50'0 0.0
2018-Nov-04 12:28N 44°25' E 008°50'0 0.0
2018-Nov-04 12:01N 44°25' E 008°50'0 0.0
2018-Nov-04 11:58N 44°25' E 008°50'0 0.0
2018-Nov-04 11:27N 44°25' E 008°50'0 0.0
2018-Nov-04 11:03N 44°25' E 008°50'0 0.0
2018-Nov-04 11:00N 44°25' E 008°50'0 0.0
2018-Nov-04 10:30N 44°25' E 008°50'0 0.0
2018-Nov-04 10:03N 44°25' E 008°50'0 0.0
2018-Nov-04 10:00N 44°25' E 008°50'0 0.0
2018-Nov-04 09:30N 44°25' E 008°50'0 0.0
2018-Nov-04 09:03N 44°25' E 008°50'0 0.0
2018-Nov-04 09:00N 44°25' E 008°50'0 0.0
2018-Nov-04 08:27N 44°25' E 008°50'0 0.0
2018-Nov-04 08:03N 44°25' E 008°50'0 0.0
2018-Nov-04 07:57N 44°25' E 008°50'0 0.0
2018-Nov-04 07:30N 44°25' E 008°50'0 0.0
2018-Nov-04 07:00N 44°25' E 008°50'0 0.0
2018-Nov-04 06:30N 44°25' E 008°50'0 0.0
2018-Nov-04 06:03N 44°25' E 008°50'0 0.0
2018-Nov-04 06:00N 44°25' E 008°50'0 0.0
2018-Nov-04 05:30N 44°25' E 008°50'0 0.0
2018-Nov-04 05:03N 44°25' E 008°50'0 0.0
2018-Nov-04 05:00N 44°25' E 008°50'0 0.0
2018-Nov-04 04:30N 44°25' E 008°50'0 0.0
2018-Nov-04 04:03N 44°25' E 008°50'0 0.0
2018-Nov-04 04:00N 44°25' E 008°50'0 0.0
2018-Nov-04 03:30N 44°25' E 008°50'0 0.0
2018-Nov-04 03:01N 44°25' E 008°50'0 0.0
2018-Nov-04 02:58N 44°25' E 008°50'0 0.0
2018-Nov-04 02:28N 44°25' E 008°50'0 0.0
2018-Nov-04 02:01N 44°25' E 008°50'0 0.0
2018-Nov-04 01:58N 44°25' E 008°50'0 0.0
2018-Nov-04 01:28N 44°25' E 008°50'0 0.0
2018-Nov-04 01:01N 44°25' E 008°50'0 0.1
2018-Nov-04 00:58N 44°25' E 008°50'0 0.0
2018-Nov-04 00:28N 44°25' E 008°50'0 0.0
2018-Nov-04 00:01N 44°25' E 008°50'0 0.0
2018-Nov-03 23:58N 44°25' E 008°50'0 0.0
2018-Nov-03 23:28N 44°25' E 008°50'0 0.0
2018-Nov-03 23:01N 44°25' E 008°50'0 0.0
2018-Nov-03 22:58N 44°25' E 008°50'0 0.0
2018-Nov-03 22:28N 44°25' E 008°50'0 0.0
2018-Nov-03 20:28N 44°25' E 008°50'0 0.0
2018-Nov-03 20:03N 44°25' E 008°50'0 0.0
2018-Nov-03 20:00N 44°25' E 008°50'0 0.0
2018-Nov-03 19:30N 44°25' E 008°50'0 0.0
2018-Nov-03 19:03N 44°25' E 008°50'0 0.0
2018-Nov-03 19:00N 44°25' E 008°50'0 0.0
2018-Nov-03 18:30N 44°25' E 008°50'0 0.0
2018-Nov-03 18:03N 44°25' E 008°50'0 0.0
2018-Nov-03 18:00N 44°25' E 008°50'0 0.0
2018-Nov-03 17:30N 44°25' E 008°50'0 0.0
2018-Nov-03 17:03N 44°25' E 008°50'0 0.0
2018-Nov-03 17:00N 44°25' E 008°50'0 0.0
2018-Nov-03 16:30N 44°25' E 008°50'0 0.0
2018-Nov-03 16:03N 44°25' E 008°50'0 0.0
2018-Nov-03 16:00N 44°25' E 008°50'0 0.0
2018-Nov-03 15:30N 44°25' E 008°50'0 0.0
2018-Nov-03 15:03N 44°25' E 008°50'0 0.0
2018-Nov-03 15:00N 44°25' E 008°50'0 0.0
2018-Nov-03 14:30N 44°25' E 008°50'0 0.0
2018-Nov-03 14:03N 44°25' E 008°50'0 0.0
2018-Nov-03 13:54N 44°25' E 008°50'0 0.0
2018-Nov-03 13:30N 44°25' E 008°50'0 0.0
2018-Nov-03 13:03N 44°25' E 008°50'0 0.0
2018-Nov-03 13:00N 44°25' E 008°50'0 0.0
2018-Nov-03 12:30N 44°25' E 008°50'0 0.0
2018-Nov-03 12:03N 44°25' E 008°50'0 0.0
2018-Nov-03 12:00N 44°25' E 008°50'0 0.0
2018-Nov-03 11:30N 44°25' E 008°50'0 0.0
2018-Nov-03 11:03N 44°25' E 008°50'0 0.0
2018-Nov-03 11:00N 44°25' E 008°50'0 0.0
2018-Nov-03 10:30N 44°25' E 008°50'0 0.0
2018-Nov-03 10:01N 44°25' E 008°50'0 0.0
2018-Nov-03 09:58N 44°25' E 008°50'0 0.0
2018-Nov-03 09:28N 44°25' E 008°50'0 0.0
2018-Nov-03 09:01N 44°25' E 008°50'0 0.0
2018-Nov-03 08:58N 44°25' E 008°50'0 0.0
2018-Nov-03 08:28N 44°25' E 008°50'0 0.0
2018-Nov-03 08:01N 44°25' E 008°50'0 0.0
2018-Nov-03 07:58N 44°25' E 008°50'0 0.0
2018-Nov-03 07:28N 44°25' E 008°50'0 0.0
2018-Nov-03 07:01N 44°25' E 008°50'0 0.0
2018-Nov-03 06:58N 44°25' E 008°50'0 0.0
2018-Nov-03 06:28N 44°25' E 008°50'0 0.0
2018-Nov-03 06:01N 44°25' E 008°50'0 0.0
2018-Nov-03 05:58N 44°25' E 008°50'0 0.0
2018-Nov-03 05:28N 44°25' E 008°50'0 0.0
2018-Nov-03 05:01N 44°25' E 008°50'0 0.0
2018-Nov-03 04:58N 44°25' E 008°50'0 0.0
2018-Nov-03 04:28N 44°25' E 008°50'0 0.0
2018-Nov-03 04:01N 44°25' E 008°50'0 0.1
2018-Nov-03 03:58N 44°25' E 008°50'0 0.0
2018-Nov-03 03:28N 44°25' E 008°50'0 0.0
2018-Nov-03 03:01N 44°25' E 008°50'0 0.0
2018-Nov-03 02:58N 44°25' E 008°50'0 0.0
2018-Nov-03 02:28N 44°25' E 008°50'0 0.0
2018-Nov-03 02:01N 44°25' E 008°50'0 0.0
2018-Nov-03 01:58N 44°25' E 008°50'0 0.0
2018-Nov-03 01:28N 44°25' E 008°50'0 0.0
2018-Nov-03 01:01N 44°25' E 008°50'0 0.0
2018-Nov-03 00:58N 44°25' E 008°50'0 0.0
2018-Nov-03 00:28N 44°25' E 008°50'0 0.0
2018-Nov-03 00:01N 44°25' E 008°50'0 0.1
2018-Nov-03 00:01N 44°25' E 008°50'0 0.0
2018-Nov-02 23:29N 44°25' E 008°50'0 0.0
2018-Nov-02 23:02N 44°25' E 008°50'0 0.0
2018-Nov-02 22:59N 44°25' E 008°50'0 0.0
2018-Nov-02 22:29N 44°25' E 008°50'0 0.0
2018-Nov-02 22:02N 44°25' E 008°50'0 0.1
2018-Nov-02 21:59N 44°25' E 008°50'0 0.0
2018-Nov-02 21:29N 44°25' E 008°50'0 0.0
2018-Nov-02 21:02N 44°25' E 008°50'0 0.0
2018-Nov-02 20:59N 44°25' E 008°50'0 0.0
2018-Nov-02 20:29N 44°25' E 008°50'0 0.0
2018-Nov-02 20:02N 44°25' E 008°50'0 0.0
2018-Nov-02 19:59N 44°25' E 008°50'0 0.0
2018-Nov-02 19:29N 44°25' E 008°50'0 0.0
2018-Nov-02 19:02N 44°25' E 008°50'0 0.0
2018-Nov-02 18:59N 44°25' E 008°50'0 0.0
2018-Nov-02 18:29N 44°25' E 008°50'0 0.0
2018-Nov-02 18:02N 44°25' E 008°50'0 0.0
2018-Nov-02 17:59N 44°25' E 008°50'0 0.0
2018-Nov-02 17:29N 44°25' E 008°50'0 0.0
2018-Nov-02 17:01N 44°25' E 008°50'0 0.0
2018-Nov-02 16:58N 44°25' E 008°50'0 0.0
2018-Nov-02 16:28N 44°25' E 008°50'0 0.0
2018-Nov-02 16:01N 44°25' E 008°50'0 0.0
2018-Nov-02 15:58N 44°25' E 008°50'0 0.0
2018-Nov-02 15:25N 44°25' E 008°50'0 0.0
2018-Nov-02 14:58N 44°25' E 008°50'0 0.0
2018-Nov-02 14:28N 44°25' E 008°50'0 0.0
2018-Nov-02 13:58N 44°25' E 008°50'0 0.0
2018-Nov-02 13:31N 44°25' E 008°50'0 0.0
2018-Nov-02 13:04N 44°25' E 008°50'0 0.0
2018-Nov-02 13:01N 44°25' E 008°50'0 0.0
2018-Nov-02 12:31N 44°25' E 008°50'0 0.0
2018-Nov-02 12:01N 44°25' E 008°50'0 0.0
2018-Nov-02 11:28N 44°25' E 008°50'0 0.0
2018-Nov-02 11:04N 44°25' E 008°50'0 0.0
2018-Nov-02 11:01N 44°25' E 008°50'0 0.0
2018-Nov-02 10:28N 44°25' E 008°50'0 0.0
2018-Nov-02 10:04N 44°25' E 008°50'0 0.0
2018-Nov-02 09:58N 44°25' E 008°50'0 0.0
2018-Nov-02 09:29N 44°25' E 008°50'0 0.0
2018-Nov-02 09:02N 44°25' E 008°50'0 0.0
2018-Nov-02 09:00N 44°25' E 008°50'0 0.0
2018-Nov-02 08:26N 44°25' E 008°50'0 0.0
2018-Nov-02 08:02N 44°25' E 008°50'0 0.0
2018-Nov-02 07:59N 44°25' E 008°50'0 0.0
2018-Nov-02 07:29N 44°25' E 008°50'0 0.0
2018-Nov-02 07:02N 44°25' E 008°50'0 0.1
2018-Nov-02 06:59N 44°25' E 008°50'0 0.0
2018-Nov-02 06:29N 44°25' E 008°50'0 0.0
2018-Nov-02 06:02N 44°25' E 008°50'0 0.0
2018-Nov-02 05:59N 44°25' E 008°50'0 0.0
2018-Nov-02 05:30N 44°25' E 008°50'0 0.0
2018-Nov-02 05:02N 44°25' E 008°50'0 0.0
2018-Nov-02 04:59N 44°25' E 008°50'0 0.0
2018-Nov-02 04:29N 44°25' E 008°50'0 0.0
2018-Nov-02 04:02N 44°25' E 008°50'0 0.0
2018-Nov-02 03:59N 44°25' E 008°50'0 0.0
2018-Nov-02 03:29N 44°25' E 008°50'0 0.0
2018-Nov-02 03:02N 44°25' E 008°50'0 0.0
2018-Nov-02 02:59N 44°25' E 008°50'0 0.0
2018-Nov-02 02:29N 44°25' E 008°50'0 0.0
2018-Nov-02 02:01N 44°25' E 008°50'0 0.0
2018-Nov-02 01:58N 44°25' E 008°50'0 0.0
2018-Nov-02 01:28N 44°25' E 008°50'0 0.0
2018-Nov-02 01:01N 44°25' E 008°50'0 0.0
2018-Nov-02 00:58N 44°25' E 008°50'0 0.0
2018-Nov-02 00:55N 44°25' E 008°50'0 0.0
2018-Nov-02 00:34N 44°25' E 008°50'0 0.0
2018-Nov-02 00:28N 44°25' E 008°50'0 0.0
2018-Nov-02 00:01N 44°25' E 008°50'0 0.0
2018-Nov-01 23:55N 44°25' E 008°50'0 0.0
2018-Nov-01 23:28N 44°25' E 008°50'0 0.0
2018-Nov-01 23:01N 44°25' E 008°50'0 0.0
2018-Nov-01 22:58N 44°25' E 008°50'0 0.0
2018-Nov-01 22:25N 44°25' E 008°50'0 0.0
2018-Nov-01 22:01N 44°25' E 008°50'0 0.0
2018-Nov-01 21:55N 44°25' E 008°50'0 0.0
2018-Nov-01 21:22N 44°25' E 008°50'0 0.0
2018-Nov-01 21:01N 44°25' E 008°50'0 0.0
2018-Nov-01 20:55N 44°25' E 008°50'0 0.0
2018-Nov-01 20:25N 44°25' E 008°50'0 0.0
2018-Nov-01 19:55N 44°25' E 008°50'0 0.0
2018-Nov-01 19:25N 44°25' E 008°50'0 0.0
2018-Nov-01 19:01N 44°25' E 008°50'0 0.0
2018-Nov-01 18:55N 44°25' E 008°50'0 0.0
2018-Nov-01 18:25N 44°25' E 008°50'0 0.0
2018-Nov-01 18:01N 44°25' E 008°50'0 0.1
2018-Nov-01 17:58N 44°25' E 008°50'0 0.0
2018-Nov-01 17:28N 44°25' E 008°50'0 0.0
2018-Nov-01 17:01N 44°25' E 008°50'0 0.0
2018-Nov-01 16:55N 44°25' E 008°50'0 0.0
2018-Nov-01 16:28N 44°25' E 008°50'0 0.0
2018-Nov-01 16:01N 44°25' E 008°50'0 0.0
2018-Nov-01 15:58N 44°25' E 008°50'0 0.0
2018-Nov-01 15:28N 44°25' E 008°50'0 0.0
2018-Nov-01 15:01N 44°25' E 008°50'0 0.0
2018-Nov-01 14:58N 44°25' E 008°50'0 0.0
2018-Nov-01 14:31N 44°25' E 008°50'0 0.0
2018-Nov-01 14:01N 44°25' E 008°50'0 0.0
2018-Nov-01 13:28N 44°25' E 008°50'0 0.0
2018-Nov-01 13:04N 44°25' E 008°50'0 0.0
2018-Nov-01 13:00N 44°25' E 008°50'0 0.0
2018-Nov-01 12:30N 44°25' E 008°50'0 0.0
2018-Nov-01 12:03N 44°25' E 008°50'0 0.0
2018-Nov-01 12:00N 44°25' E 008°50'0 0.0
2018-Nov-01 11:30N 44°25' E 008°50'0 0.0
2018-Nov-01 11:03N 44°25' E 008°50'0 0.0
2018-Nov-01 11:00N 44°25' E 008°50'0 0.0
2018-Nov-01 10:30N 44°25' E 008°50'0 0.0
2018-Nov-01 10:03N 44°25' E 008°50'0 0.0
2018-Nov-01 10:00N 44°25' E 008°50'0 0.0
2018-Nov-01 09:29N 44°25' E 008°50'0 0.0
2018-Nov-01 09:02N 44°25' E 008°50'0 0.0
2018-Nov-01 08:59N 44°25' E 008°50'0 0.0
2018-Nov-01 08:29N 44°25' E 008°50'0 0.0
2018-Nov-01 08:02N 44°25' E 008°50'0 0.0
2018-Nov-01 07:59N 44°25' E 008°50'0 0.0
2018-Nov-01 07:29N 44°25' E 008°50'0 0.0
2018-Nov-01 07:03N 44°25' E 008°50'0 0.1
2018-Nov-01 07:01N 44°25' E 008°50'0 0.0
2018-Nov-01 06:30N 44°25' E 008°50'0 0.0
2018-Nov-01 06:03N 44°25' E 008°50'0 0.0
2018-Nov-01 06:00N 44°25' E 008°50'0 0.0
2018-Nov-01 05:30N 44°25' E 008°50'0 0.0
2018-Nov-01 05:03N 44°25' E 008°50'0 0.0
2018-Nov-01 05:00N 44°25' E 008°50'0 0.0
2018-Nov-01 04:30N 44°25' E 008°50'0 0.0
2018-Nov-01 04:03N 44°25' E 008°50'0 0.0
2018-Nov-01 04:00N 44°25' E 008°50'0 0.0
2018-Nov-01 03:30N 44°25' E 008°50'0 0.0
2018-Nov-01 03:03N 44°25' E 008°50'0 0.0
2018-Nov-01 03:00N 44°25' E 008°50'0 0.0
2018-Nov-01 02:30N 44°25' E 008°50'0 0.0
2018-Nov-01 02:03N 44°25' E 008°50'0 0.0
2018-Nov-01 02:00N 44°25' E 008°50'0 0.0
2018-Nov-01 01:30N 44°25' E 008°50'0 0.0
2018-Nov-01 01:03N 44°25' E 008°50'0 0.0
2018-Nov-01 01:00N 44°25' E 008°50'0 0.0
2018-Nov-01 00:30N 44°25' E 008°50'0 0.0
2018-Nov-01 00:03N 44°25' E 008°50'0 0.0
2018-Nov-01 00:00N 44°25' E 008°50'0 0.0
2018-Oct-31 23:27N 44°25' E 008°50'0 0.0
2018-Oct-31 23:03N 44°25' E 008°50'0 0.0
2018-Oct-31 22:57N 44°25' E 008°50'0 0.0
2018-Oct-31 22:27N 44°25' E 008°50'0 0.0
2018-Oct-31 22:03N 44°25' E 008°50'0 0.0
2018-Oct-31 22:00N 44°25' E 008°50'0 0.0
2018-Oct-31 21:30N 44°25' E 008°50'0 0.0
2018-Oct-31 21:03N 44°25' E 008°50'0 0.0
2018-Oct-31 21:00N 44°25' E 008°50'0 0.0
2018-Oct-31 20:30N 44°25' E 008°50'0 0.0
2018-Oct-31 20:03N 44°25' E 008°50'0 0.0
2018-Oct-31 20:00N 44°25' E 008°50'0 0.0
2018-Oct-31 19:30N 44°25' E 008°50'0 0.0
2018-Oct-31 19:03N 44°25' E 008°50'0 0.0
2018-Oct-31 19:00N 44°25' E 008°50'0 0.0
2018-Oct-31 18:30N 44°25' E 008°50'0 0.0
2018-Oct-31 18:03N 44°25' E 008°50'0 0.0
2018-Oct-31 18:00N 44°25' E 008°50'0 0.0
2018-Oct-31 17:30N 44°25' E 008°50'0 0.0
2018-Oct-31 17:03N 44°25' E 008°50'0 0.0
2018-Oct-31 17:00N 44°25' E 008°50'0 0.0
2018-Oct-31 16:30N 44°25' E 008°50'0 0.0
2018-Oct-31 16:03N 44°25' E 008°50'0 0.0
2018-Oct-31 16:00N 44°25' E 008°50'0 0.1
2018-Oct-31 15:30N 44°25' E 008°50'1 2.9
2018-Oct-31 15:03N 44°25' E 008°48'0 3.8
2018-Oct-31 15:00N 44°24' E 008°48'2 3.0
2018-Oct-31 14:30N 44°23' E 008°47'1 2.3
2018-Oct-31 14:00N 44°23' E 008°46'1 2.8
2018-Oct-31 13:30N 44°22' E 008°44'1 2.8
2018-Oct-31 13:03N 44°22' E 008°42'0 3.0
2018-Oct-31 13:00N 44°21' E 008°42'1 2.4
2018-Oct-31 12:30N 44°20' E 008°41'2 4.8
2018-Oct-31 12:03N 44°21' E 008°44'0 5.9
2018-Oct-31 12:00N 44°21' E 008°45'1 2.4
2018-Oct-31 11:30N 44°22' E 008°46'0 0.4
2018-Oct-31 11:03N 44°22' E 008°46'0 3.8
2018-Oct-31 11:00N 44°22' E 008°46'2 4.1
2018-Oct-31 10:30N 44°24' E 008°47'2 4.3
2018-Oct-31 10:03N 44°25' E 008°50'0 4.2
2018-Oct-31 10:00N 44°25' E 008°50'0 0.3
2018-Oct-31 09:26N 44°25' E 008°50'0 0.0
2018-Oct-31 09:02N 44°25' E 008°50'0 0.0
2018-Oct-31 08:59N 44°25' E 008°50'0 0.0
2018-Oct-31 08:29N 44°25' E 008°50'0 0.0
2018-Oct-31 08:02N 44°25' E 008°50'0 0.0
2018-Oct-31 07:59N 44°25' E 008°50'0 0.0
2018-Oct-31 07:29N 44°25' E 008°50'0 0.0
2018-Oct-31 07:02N 44°25' E 008°50'0 0.0
2018-Oct-31 06:59N 44°25' E 008°50'0 0.0
2018-Oct-31 06:29N 44°25' E 008°50'0 0.0
2018-Oct-31 06:02N 44°25' E 008°50'0 0.0
2018-Oct-31 05:59N 44°25' E 008°50'0 0.0
2018-Oct-31 05:29N 44°25' E 008°50'0 0.0
2018-Oct-31 05:02N 44°25' E 008°50'0 0.0
2018-Oct-31 04:59N 44°25' E 008°50'0 0.0
2018-Oct-31 04:29N 44°25' E 008°50'0 0.0
2018-Oct-31 04:02N 44°25' E 008°50'0 0.0
2018-Oct-31 03:59N 44°25' E 008°50'0 0.0
2018-Oct-31 03:29N 44°25' E 008°50'0 0.0
2018-Oct-31 03:02N 44°25' E 008°50'0 0.0
2018-Oct-31 02:59N 44°25' E 008°50'0 0.0
2018-Oct-31 02:29N 44°25' E 008°50'0 0.0
2018-Oct-31 02:02N 44°25' E 008°50'0 0.0
2018-Oct-31 01:59N 44°25' E 008°50'0 0.0
2018-Oct-31 01:29N 44°25' E 008°50'0 0.0
2018-Oct-31 01:02N 44°25' E 008°50'0 0.0
2018-Oct-31 00:59N 44°25' E 008°50'0 0.0
2018-Oct-31 00:29N 44°25' E 008°50'0 0.0
2018-Oct-31 00:02N 44°25' E 008°50'0 0.0
2018-Oct-30 23:59N 44°25' E 008°50'0 0.0
2018-Oct-30 23:26N 44°25' E 008°50'0 0.0
2018-Oct-30 22:59N 44°25' E 008°50'0 0.0
2018-Oct-30 22:29N 44°25' E 008°50'0 0.0
2018-Oct-30 21:59N 44°25' E 008°50'0 0.0
2018-Oct-30 21:29N 44°25' E 008°50'0 0.0
2018-Oct-30 20:59N 44°25' E 008°50'0 0.0
2018-Oct-30 20:29N 44°25' E 008°50'0 0.0
2018-Oct-30 19:59N 44°25' E 008°50'0 0.0
2018-Oct-30 19:29N 44°25' E 008°50'0 0.0
2018-Oct-30 19:02N 44°25' E 008°50'0 0.0
2018-Oct-30 18:56N 44°25' E 008°50'0 0.0
2018-Oct-30 18:29N 44°25' E 008°50'0 0.0
2018-Oct-30 17:59N 44°25' E 008°50'0 0.0
2018-Oct-30 17:29N 44°25' E 008°50'0 0.0
2018-Oct-30 16:59N 44°25' E 008°50'0 0.0
2018-Oct-30 16:29N 44°25' E 008°50'0 0.0
2018-Oct-30 16:02N 44°25' E 008°50'0 0.0
2018-Oct-30 15:59N 44°25' E 008°50'0 0.0
2018-Oct-30 15:29N 44°25' E 008°50'0 0.0
2018-Oct-30 15:02N 44°25' E 008°50'0 0.0
2018-Oct-30 14:59N 44°25' E 008°50'0 0.0
2018-Oct-30 13:59N 44°25' E 008°50'0 0.0
2018-Oct-30 13:29N 44°25' E 008°50'0 0.0
2018-Oct-30 13:02N 44°25' E 008°50'0 0.0
2018-Oct-30 12:59N 44°25' E 008°50'0 0.0
2018-Oct-30 12:29N 44°25' E 008°50'0 0.0
2018-Oct-30 12:02N 44°25' E 008°50'0 0.0
2018-Oct-30 11:59N 44°25' E 008°50'0 0.0
2018-Oct-30 11:29N 44°25' E 008°50'0 0.0
2018-Oct-30 11:02N 44°25' E 008°50'0 0.0
2018-Oct-30 10:59N 44°25' E 008°50'0 0.0
2018-Oct-30 10:29N 44°25' E 008°50'0 0.0
2018-Oct-30 10:02N 44°25' E 008°50'0 0.0
2018-Oct-30 09:59N 44°25' E 008°50'0 0.0
2018-Oct-30 09:29N 44°25' E 008°50'0 0.0
2018-Oct-30 09:02N 44°25' E 008°50'0 0.0
2018-Oct-30 08:59N 44°25' E 008°50'0 0.0
2018-Oct-30 08:29N 44°25' E 008°50'0 0.0
2018-Oct-30 08:02N 44°25' E 008°50'0 0.0
2018-Oct-30 07:59N 44°25' E 008°50'0 0.0
2018-Oct-30 07:29N 44°25' E 008°50'0 0.0
2018-Oct-30 07:02N 44°25' E 008°50'0 0.0
2018-Oct-30 06:59N 44°25' E 008°50'0 0.0
2018-Oct-30 06:29N 44°25' E 008°50'0 0.0
2018-Oct-30 06:02N 44°25' E 008°50'0 0.0
2018-Oct-30 05:59N 44°25' E 008°50'0 0.0
2018-Oct-30 05:29N 44°25' E 008°50'0 0.0
2018-Oct-30 05:02N 44°25' E 008°50'0 0.0
2018-Oct-30 04:59N 44°25' E 008°50'  
Track history (hours):
 
Tides and Currents Weather Stations Pressure Air Temp Water Temp Dewpoint Dewpoint Depression Visibility Wind Speed Wind Dir Waves Ship Positions

STS Pogoria

Last reported at 2018-Nov-09 04:45 UTC. Time now 2018-Dec-12 04:52 UTC.
Position N 43°48' E 007°56'.
Warning: this ship's position is 33 days out of date.

Length 47 m.

Type: Sailing vessel. MMSI: 261146000.

Date/timePositionNaut miles runAvg speedWind from/ knotsBaromVisibWave heightAir tempDewpointWater temp
2018-Nov-09 04:45N 43°48' E 007°56'1 4.5
2018-Nov-09 04:32N 43°48' E 007°55'2 4.7
2018-Nov-09 04:02N 43°46' E 007°52'3 5.0
2018-Nov-09 03:32N 43°45' E 007°50'2 4.9
2018-Nov-09 03:02N 43°43' E 007°47'2 5.0
2018-Nov-09 02:32N 43°42' E 007°44'3 5.1
2018-Nov-09 02:02N 43°40' E 007°42'2 4.9
2018-Nov-09 01:32N 43°38' E 007°39'2 4.6
2018-Nov-09 01:02N 43°37' E 007°37'2 4.3
2018-Nov-09 00:32N 43°36' E 007°34'2 4.0
2018-Nov-09 00:02N 43°34' E 007°32'2 3.9
2018-Nov-08 23:32N 43°33' E 007°30'2 4.1
2018-Nov-08 23:02N 43°32' E 007°28'2 4.2
2018-Nov-08 22:32N 43°31' E 007°26'2 4.0
2018-Nov-08 22:02N 43°29' E 007°24'3 5.5
2018-Nov-08 21:32N 43°26' E 007°24'1 2.5
2018-Nov-08 21:02N 43°27' E 007°24'2 3.1
2018-Nov-08 20:32N 43°29' E 007°24'1 2.8
2018-Nov-08 20:02N 43°30' E 007°24'2 3.4
2018-Nov-08 19:32N 43°32' E 007°24'1 1.9
2018-Nov-08 19:02N 43°33' E 007°24'1 1.7
2018-Nov-08 18:32N 43°34' E 007°24'1 2.4
2018-Nov-08 18:02N 43°35' E 007°24'2 3.0
2018-Nov-08 17:32N 43°36' E 007°23'1 2.8
2018-Nov-08 17:02N 43°37' E 007°22'1 1.7
2018-Nov-08 16:32N 43°38' E 007°21'1 1.6
2018-Nov-08 16:02N 43°39' E 007°21'1 2.0
2018-Nov-08 15:32N 43°40' E 007°20'3 5.4
2018-Nov-08 15:02N 43°42' E 007°17'0 0.2
2018-Nov-08 14:32N 43°42' E 007°17'0 0.0
2018-Nov-08 14:02N 43°42' E 007°17'0 0.0
2018-Nov-08 13:32N 43°42' E 007°17'0 0.0
2018-Nov-08 13:02N 43°42' E 007°17'0 0.0
2018-Nov-08 12:32N 43°42' E 007°17'0 0.0
2018-Nov-08 12:02N 43°42' E 007°17'0 0.0
2018-Nov-08 11:32N 43°42' E 007°17'0 0.0
2018-Nov-08 11:02N 43°42' E 007°17'0 0.0
2018-Nov-08 10:32N 43°42' E 007°17'0 0.0
2018-Nov-08 10:02N 43°42' E 007°17'0 0.0
2018-Nov-08 09:32N 43°42' E 007°17'0 0.0
2018-Nov-08 09:02N 43°42' E 007°17'0 0.0
2018-Nov-08 08:32N 43°42' E 007°17'0 0.0
2018-Nov-08 08:02N 43°42' E 007°17'0 0.0
2018-Nov-08 07:32N 43°42' E 007°17'0 0.0
2018-Nov-08 07:02N 43°42' E 007°17'0 0.0
2018-Nov-08 06:32N 43°42' E 007°17'0 0.0
2018-Nov-08 06:02N 43°42' E 007°17'0 0.0
2018-Nov-08 05:32N 43°42' E 007°17'0 0.0
2018-Nov-08 05:02N 43°42' E 007°17'0 0.0
2018-Nov-08 04:32N 43°42' E 007°17'0 0.0
2018-Nov-08 04:02N 43°42' E 007°17'0 0.0
2018-Nov-08 03:29N 43°42' E 007°17'0 0.0
2018-Nov-08 03:02N 43°42' E 007°17'0 0.0
2018-Nov-08 02:32N 43°42' E 007°17'0 0.0
2018-Nov-08 02:02N 43°42' E 007°17'0 0.0
2018-Nov-08 01:32N 43°42' E 007°17'0 0.0
2018-Nov-08 01:02N 43°42' E 007°17'0 0.0
2018-Nov-08 00:41N 43°42' E 007°17'0 0.0
2018-Nov-08 00:32N 43°42' E 007°17'0 0.0
2018-Nov-08 00:26N 43°42' E 007°17'0 0.0
2018-Nov-08 00:02N 43°42' E 007°17'0 0.0
2018-Nov-07 23:32N 43°42' E 007°17'0 0.0
2018-Nov-07 23:02N 43°42' E 007°17'0 0.0
2018-Nov-07 22:32N 43°42' E 007°17'0 0.0
2018-Nov-07 22:02N 43°42' E 007°17'0 0.0
2018-Nov-07 21:32N 43°42' E 007°17'0 0.0
2018-Nov-07 21:02N 43°42' E 007°17'0 0.0
2018-Nov-07 20:32N 43°42' E 007°17'0 0.0
2018-Nov-07 20:02N 43°42' E 007°17'0 0.0
2018-Nov-07 19:32N 43°42' E 007°17'0 0.0
2018-Nov-07 19:02N 43°42' E 007°17'0 0.0
2018-Nov-07 18:32N 43°42' E 007°17'0 0.0
2018-Nov-07 18:02N 43°42' E 007°17'0 0.0
2018-Nov-07 17:32N 43°42' E 007°17'0 0.0
2018-Nov-07 17:02N 43°42' E 007°17'0 0.0
2018-Nov-07 16:32N 43°42' E 007°17'0 0.0
2018-Nov-07 16:02N 43°42' E 007°17'0 0.0
2018-Nov-07 15:32N 43°42' E 007°17'0 0.1
2018-Nov-07 15:02N 43°42' E 007°17'1 2.4
2018-Nov-07 14:32N 43°42' E 007°19'0 0.7
2018-Nov-07 13:57N 43°42' E 007°19'0 0.0
2018-Nov-07 13:30N 43°42' E 007°19'0 0.0
2018-Nov-07 13:00N 43°42' E 007°19'0 0.0
2018-Nov-07 12:30N 43°42' E 007°19'0 0.0
2018-Nov-07 12:00N 43°42' E 007°19'0 0.0
2018-Nov-07 11:30N 43°42' E 007°19'0 0.0
2018-Nov-07 11:00N 43°42' E 007°19'0 0.0
2018-Nov-07 10:27N 43°42' E 007°19'0 0.0
2018-Nov-07 09:57N 43°42' E 007°19'0 0.0
2018-Nov-07 09:31N 43°42' E 007°19'0 0.7
2018-Nov-07 09:02N 43°42' E 007°19'2 4.0
2018-Nov-07 08:32N 43°40' E 007°20'3 5.5
2018-Nov-07 08:02N 43°38' E 007°22'3 5.6
2018-Nov-07 07:32N 43°36' E 007°25'3 5.7
2018-Nov-07 07:02N 43°34' E 007°28'3 5.2
2018-Nov-07 06:32N 43°32' E 007°30'3 5.3
2018-Nov-07 06:02N 43°30' E 007°32'3 5.7
2018-Nov-07 05:32N 43°28' E 007°35'3 5.4
2018-Nov-07 05:02N 43°26' E 007°38'3 5.2
2018-Nov-07 04:32N 43°24' E 007°40'61 1.4
2018-Nov-05 09:06N 44°08' E 008°39'0 6.2
2018-Nov-05 09:02N 44°08' E 008°39'0 6.5
2018-Nov-05 09:00N 44°08' E 008°39'3 6.0
2018-Nov-05 08:30N 44°11' E 008°38'3 5.7
2018-Nov-05 08:02N 44°14' E 008°38'0 6.4
2018-Nov-05 08:00N 44°14' E 008°38'3 5.8
2018-Nov-05 07:30N 44°17' E 008°40'3 6.6
2018-Nov-05 07:03N 44°19' E 008°43'0 6.4
2018-Nov-05 07:00N 44°19' E 008°43'3 6.5
2018-Nov-05 06:30N 44°22' E 008°46'3 6.3
2018-Nov-05 06:03N 44°24' E 008°47'0 6.7
2018-Nov-05 06:00N 44°25' E 008°48'2 3.3
2018-Nov-05 05:30N 44°25' E 008°50'0 0.0
2018-Nov-05 05:03N 44°25' E 008°50'0 0.0
2018-Nov-05 05:00N 44°25' E 008°50'0 0.0
2018-Nov-05 04:30N 44°25' E 008°50'0 0.0
2018-Nov-05 04:03N 44°25' E 008°50'0 0.1
2018-Nov-05 04:00N 44°25' E 008°50'0 0.0
2018-Nov-05 03:30N 44°25' E 008°50'0 0.0
2018-Nov-05 03:03N 44°25' E 008°50'0 0.0
2018-Nov-05 03:00N 44°25' E 008°50'0 0.0
2018-Nov-05 02:30N 44°25' E 008°50'0 0.0
2018-Nov-05 02:03N 44°25' E 008°50'0 0.0
2018-Nov-05 02:00N 44°25' E 008°50'0 0.0
2018-Nov-05 01:30N 44°25' E 008°50'0 0.0
2018-Nov-05 01:03N 44°25' E 008°50'0 0.0
2018-Nov-05 01:00N 44°25' E 008°50'0 0.0
2018-Nov-05 00:30N 44°25' E 008°50'0 0.0
2018-Nov-05 00:03N 44°25' E 008°50'0 0.0
2018-Nov-05 00:00N 44°25' E 008°50'0 0.0
2018-Nov-04 23:30N 44°25' E 008°50'0 0.0
2018-Nov-04 23:03N 44°25' E 008°50'0 0.0
2018-Nov-04 22:51N 44°25' E 008°50'0 0.0
2018-Nov-04 22:21N 44°25' E 008°50'0 0.0
2018-Nov-04 22:03N 44°25' E 008°50'0 0.0
2018-Nov-04 22:00N 44°25' E 008°50'0 0.0
2018-Nov-04 21:30N 44°25' E 008°50'0 0.0
2018-Nov-04 21:03N 44°25' E 008°50'0 0.0
2018-Nov-04 20:57N 44°25' E 008°50'0 0.0
2018-Nov-04 20:30N 44°25' E 008°50'0 0.0
2018-Nov-04 20:03N 44°25' E 008°50'0 0.0
2018-Nov-04 20:00N 44°25' E 008°50'0 0.0
2018-Nov-04 19:30N 44°25' E 008°50'0 0.0
2018-Nov-04 19:03N 44°25' E 008°50'0 0.0
2018-Nov-04 18:57N 44°25' E 008°50'0 0.0
2018-Nov-04 18:30N 44°25' E 008°50'0 0.0
2018-Nov-04 18:03N 44°25' E 008°50'0 0.0
2018-Nov-04 18:00N 44°25' E 008°50'0 0.0
2018-Nov-04 17:30N 44°25' E 008°50'0 0.0
2018-Nov-04 17:00N 44°25' E 008°50'0 0.0
2018-Nov-04 16:30N 44°25' E 008°50'0 0.0
2018-Nov-04 16:03N 44°25' E 008°50'0 0.0
2018-Nov-04 16:00N 44°25' E 008°50'0 0.0
2018-Nov-04 15:30N 44°25' E 008°50'0 0.0
2018-Nov-04 15:03N 44°25' E 008°50'0 0.0
2018-Nov-04 15:00N 44°25' E 008°50'0 0.0
2018-Nov-04 14:30N 44°25' E 008°50'0 0.0
2018-Nov-04 14:01N 44°25' E 008°50'0 0.0
2018-Nov-04 13:58N 44°25' E 008°50'0 0.0
2018-Nov-04 13:25N 44°25' E 008°50'0 0.0
2018-Nov-04 13:01N 44°25' E 008°50'0 0.0
2018-Nov-04 12:58N 44°25' E 008°50'0 0.0
2018-Nov-04 12:28N 44°25' E 008°50'0 0.0
2018-Nov-04 12:01N 44°25' E 008°50'0 0.0
2018-Nov-04 11:58N 44°25' E 008°50'0 0.0
2018-Nov-04 11:27N 44°25' E 008°50'0 0.0
2018-Nov-04 11:03N 44°25' E 008°50'0 0.0
2018-Nov-04 11:00N 44°25' E 008°50'0 0.0
2018-Nov-04 10:30N 44°25' E 008°50'0 0.0
2018-Nov-04 10:03N 44°25' E 008°50'0 0.0
2018-Nov-04 10:00N 44°25' E 008°50'0 0.0
2018-Nov-04 09:30N 44°25' E 008°50'0 0.0
2018-Nov-04 09:03N 44°25' E 008°50'0 0.0
2018-Nov-04 09:00N 44°25' E 008°50'0 0.0
2018-Nov-04 08:27N 44°25' E 008°50'0 0.0
2018-Nov-04 08:03N 44°25' E 008°50'0 0.0
2018-Nov-04 07:57N 44°25' E 008°50'0 0.0
2018-Nov-04 07:30N 44°25' E 008°50'0 0.0
2018-Nov-04 07:00N 44°25' E 008°50'0 0.0
2018-Nov-04 06:30N 44°25' E 008°50'0 0.0
2018-Nov-04 06:03N 44°25' E 008°50'0 0.0
2018-Nov-04 06:00N 44°25' E 008°50'0 0.0
2018-Nov-04 05:30N 44°25' E 008°50'0 0.0
2018-Nov-04 05:03N 44°25' E 008°50'0 0.0
2018-Nov-04 05:00N 44°25' E 008°50'0 0.0
2018-Nov-04 04:30N 44°25' E 008°50'0 0.0
2018-Nov-04 04:03N 44°25' E 008°50'0 0.0
2018-Nov-04 04:00N 44°25' E 008°50'0 0.0
2018-Nov-04 03:30N 44°25' E 008°50'0 0.0
2018-Nov-04 03:01N 44°25' E 008°50'0 0.0
2018-Nov-04 02:58N 44°25' E 008°50'0 0.0
2018-Nov-04 02:28N 44°25' E 008°50'0 0.0
2018-Nov-04 02:01N 44°25' E 008°50'0 0.0
2018-Nov-04 01:58N 44°25' E 008°50'0 0.0
2018-Nov-04 01:28N 44°25' E 008°50'0 0.0
2018-Nov-04 01:01N 44°25' E 008°50'0 0.1
2018-Nov-04 00:58N 44°25' E 008°50'0 0.0
2018-Nov-04 00:28N 44°25' E 008°50'0 0.0
2018-Nov-04 00:01N 44°25' E 008°50'0 0.0
2018-Nov-03 23:58N 44°25' E 008°50'0 0.0
2018-Nov-03 23:28N 44°25' E 008°50'0 0.0
2018-Nov-03 23:01N 44°25' E 008°50'0 0.0
2018-Nov-03 22:58N 44°25' E 008°50'0 0.0
2018-Nov-03 22:28N 44°25' E 008°50'0 0.0
2018-Nov-03 20:28N 44°25' E 008°50'0 0.0
2018-Nov-03 20:03N 44°25' E 008°50'0 0.0
2018-Nov-03 20:00N 44°25' E 008°50'0 0.0
2018-Nov-03 19:30N 44°25' E 008°50'0 0.0
2018-Nov-03 19:03N 44°25' E 008°50'0 0.0
2018-Nov-03 19:00N 44°25' E 008°50'0 0.0
2018-Nov-03 18:30N 44°25' E 008°50'0 0.0
2018-Nov-03 18:03N 44°25' E 008°50'0 0.0
2018-Nov-03 18:00N 44°25' E 008°50'0 0.0
2018-Nov-03 17:30N 44°25' E 008°50'0 0.0
2018-Nov-03 17:03N 44°25' E 008°50'0 0.0
2018-Nov-03 17:00N 44°25' E 008°50'0 0.0
2018-Nov-03 16:30N 44°25' E 008°50'0 0.0
2018-Nov-03 16:03N 44°25' E 008°50'0 0.0
2018-Nov-03 16:00N 44°25' E 008°50'0 0.0
2018-Nov-03 15:30N 44°25' E 008°50'0 0.0
2018-Nov-03 15:03N 44°25' E 008°50'0 0.0
2018-Nov-03 15:00N 44°25' E 008°50'0 0.0
2018-Nov-03 14:30N 44°25' E 008°50'0 0.0
2018-Nov-03 14:03N 44°25' E 008°50'0 0.0
2018-Nov-03 13:54N 44°25' E 008°50'0 0.0
2018-Nov-03 13:30N 44°25' E 008°50'0 0.0
2018-Nov-03 13:03N 44°25' E 008°50'0 0.0
2018-Nov-03 13:00N 44°25' E 008°50'0 0.0
2018-Nov-03 12:30N 44°25' E 008°50'0 0.0
2018-Nov-03 12:03N 44°25' E 008°50'0 0.0
2018-Nov-03 12:00N 44°25' E 008°50'0 0.0
2018-Nov-03 11:30N 44°25' E 008°50'0 0.0
2018-Nov-03 11:03N 44°25' E 008°50'0 0.0
2018-Nov-03 11:00N 44°25' E 008°50'0 0.0
2018-Nov-03 10:30N 44°25' E 008°50'0 0.0
2018-Nov-03 10:01N 44°25' E 008°50'0 0.0
2018-Nov-03 09:58N 44°25' E 008°50'0 0.0
2018-Nov-03 09:28N 44°25' E 008°50'0 0.0
2018-Nov-03 09:01N 44°25' E 008°50'0 0.0
2018-Nov-03 08:58N 44°25' E 008°50'0 0.0
2018-Nov-03 08:28N 44°25' E 008°50'0 0.0
2018-Nov-03 08:01N 44°25' E 008°50'0 0.0
2018-Nov-03 07:58N 44°25' E 008°50'0 0.0
2018-Nov-03 07:28N 44°25' E 008°50'0 0.0
2018-Nov-03 07:01N 44°25' E 008°50'0 0.0
2018-Nov-03 06:58N 44°25' E 008°50'0 0.0
2018-Nov-03 06:28N 44°25' E 008°50'0 0.0
2018-Nov-03 06:01N 44°25' E 008°50'0 0.0
2018-Nov-03 05:58N 44°25' E 008°50'0 0.0
2018-Nov-03 05:28N 44°25' E 008°50'0 0.0
2018-Nov-03 05:01N 44°25' E 008°50'0 0.0
2018-Nov-03 04:58N 44°25' E 008°50'0 0.0
2018-Nov-03 04:28N 44°25' E 008°50'0 0.0
2018-Nov-03 04:01N 44°25' E 008°50'0 0.1
2018-Nov-03 03:58N 44°25' E 008°50'0 0.0
2018-Nov-03 03:28N 44°25' E 008°50'0 0.0
2018-Nov-03 03:01N 44°25' E 008°50'0 0.0
2018-Nov-03 02:58N 44°25' E 008°50'0 0.0
2018-Nov-03 02:28N 44°25' E 008°50'0 0.0
2018-Nov-03 02:01N 44°25' E 008°50'0 0.0
2018-Nov-03 01:58N 44°25' E 008°50'0 0.0
2018-Nov-03 01:28N 44°25' E 008°50'0 0.0
2018-Nov-03 01:01N 44°25' E 008°50'0 0.0
2018-Nov-03 00:58N 44°25' E 008°50'0 0.0
2018-Nov-03 00:28N 44°25' E 008°50'0 0.0
2018-Nov-03 00:01N 44°25' E 008°50'0 0.1
2018-Nov-03 00:01N 44°25' E 008°50'0 0.0
2018-Nov-02 23:29N 44°25' E 008°50'0 0.0
2018-Nov-02 23:02N 44°25' E 008°50'0 0.0
2018-Nov-02 22:59N 44°25' E 008°50'0 0.0
2018-Nov-02 22:29N 44°25' E 008°50'0 0.0
2018-Nov-02 22:02N 44°25' E 008°50'0 0.1
2018-Nov-02 21:59N 44°25' E 008°50'0 0.0
2018-Nov-02 21:29N 44°25' E 008°50'0 0.0
2018-Nov-02 21:02N 44°25' E 008°50'0 0.0
2018-Nov-02 20:59N 44°25' E 008°50'0 0.0
2018-Nov-02 20:29N 44°25' E 008°50'0 0.0
2018-Nov-02 20:02N 44°25' E 008°50'0 0.0
2018-Nov-02 19:59N 44°25' E 008°50'0 0.0
2018-Nov-02 19:29N 44°25' E 008°50'0 0.0
2018-Nov-02 19:02N 44°25' E 008°50'0 0.0
2018-Nov-02 18:59N 44°25' E 008°50'0 0.0
2018-Nov-02 18:29N 44°25' E 008°50'0 0.0
2018-Nov-02 18:02N 44°25' E 008°50'0 0.0
2018-Nov-02 17:59N 44°25' E 008°50'0 0.0
2018-Nov-02 17:29N 44°25' E 008°50'0 0.0
2018-Nov-02 17:01N 44°25' E 008°50'0 0.0
2018-Nov-02 16:58N 44°25' E 008°50'0 0.0
2018-Nov-02 16:28N 44°25' E 008°50'0 0.0
2018-Nov-02 16:01N 44°25' E 008°50'0 0.0
2018-Nov-02 15:58N 44°25' E 008°50'0 0.0
2018-Nov-02 15:25N 44°25' E 008°50'0 0.0
2018-Nov-02 14:58N 44°25' E 008°50'0 0.0
2018-Nov-02 14:28N 44°25' E 008°50'0 0.0
2018-Nov-02 13:58N 44°25' E 008°50'0 0.0
2018-Nov-02 13:31N 44°25' E 008°50'0 0.0
2018-Nov-02 13:04N 44°25' E 008°50'0 0.0
2018-Nov-02 13:01N 44°25' E 008°50'0 0.0
2018-Nov-02 12:31N 44°25' E 008°50'0 0.0
2018-Nov-02 12:01N 44°25' E 008°50'0 0.0
2018-Nov-02 11:28N 44°25' E 008°50'0 0.0
2018-Nov-02 11:04N 44°25' E 008°50'0 0.0
2018-Nov-02 11:01N 44°25' E 008°50'0 0.0
2018-Nov-02 10:28N 44°25' E 008°50'0 0.0
2018-Nov-02 10:04N 44°25' E 008°50'0 0.0
2018-Nov-02 09:58N 44°25' E 008°50'0 0.0
2018-Nov-02 09:29N 44°25' E 008°50'0 0.0
2018-Nov-02 09:02N 44°25' E 008°50'0 0.0
2018-Nov-02 09:00N 44°25' E 008°50'0 0.0
2018-Nov-02 08:26N 44°25' E 008°50'0 0.0
2018-Nov-02 08:02N 44°25' E 008°50'0 0.0
2018-Nov-02 07:59N 44°25' E 008°50'0 0.0
2018-Nov-02 07:29N 44°25' E 008°50'0 0.0
2018-Nov-02 07:02N 44°25' E 008°50'0 0.1
2018-Nov-02 06:59N 44°25' E 008°50'0 0.0
2018-Nov-02 06:29N 44°25' E 008°50'0 0.0
2018-Nov-02 06:02N 44°25' E 008°50'0 0.0
2018-Nov-02 05:59N 44°25' E 008°50'0 0.0
2018-Nov-02 05:30N 44°25' E 008°50'0 0.0
2018-Nov-02 05:02N 44°25' E 008°50'0 0.0
2018-Nov-02 04:59N 44°25' E 008°50'0 0.0
2018-Nov-02 04:29N 44°25' E 008°50'0 0.0
2018-Nov-02 04:02N 44°25' E 008°50'0 0.0
2018-Nov-02 03:59N 44°25' E 008°50'0 0.0
2018-Nov-02 03:29N 44°25' E 008°50'0 0.0
2018-Nov-02 03:02N 44°25' E 008°50'0 0.0
2018-Nov-02 02:59N 44°25' E 008°50'0 0.0
2018-Nov-02 02:29N 44°25' E 008°50'0 0.0
2018-Nov-02 02:01N 44°25' E 008°50'0 0.0
2018-Nov-02 01:58N 44°25' E 008°50'0 0.0
2018-Nov-02 01:28N 44°25' E 008°50'0 0.0
2018-Nov-02 01:01N 44°25' E 008°50'0 0.0
2018-Nov-02 00:58N 44°25' E 008°50'0 0.0
2018-Nov-02 00:55N 44°25' E 008°50'0 0.0
2018-Nov-02 00:34N 44°25' E 008°50'0 0.0
2018-Nov-02 00:28N 44°25' E 008°50'0 0.0
2018-Nov-02 00:01N 44°25' E 008°50'0 0.0
2018-Nov-01 23:55N 44°25' E 008°50'0 0.0
2018-Nov-01 23:28N 44°25' E 008°50'0 0.0
2018-Nov-01 23:01N 44°25' E 008°50'0 0.0
2018-Nov-01 22:58N 44°25' E 008°50'0 0.0
2018-Nov-01 22:25N 44°25' E 008°50'0 0.0
2018-Nov-01 22:01N 44°25' E 008°50'0 0.0
2018-Nov-01 21:55N 44°25' E 008°50'0 0.0
2018-Nov-01 21:22N 44°25' E 008°50'0 0.0
2018-Nov-01 21:01N 44°25' E 008°50'0 0.0
2018-Nov-01 20:55N 44°25' E 008°50'0 0.0
2018-Nov-01 20:25N 44°25' E 008°50'0 0.0
2018-Nov-01 19:55N 44°25' E 008°50'0 0.0
2018-Nov-01 19:25N 44°25' E 008°50'0 0.0
2018-Nov-01 19:01N 44°25' E 008°50'0 0.0
2018-Nov-01 18:55N 44°25' E 008°50'0 0.0
2018-Nov-01 18:25N 44°25' E 008°50'0 0.0
2018-Nov-01 18:01N 44°25' E 008°50'0 0.1
2018-Nov-01 17:58N 44°25' E 008°50'0 0.0
2018-Nov-01 17:28N 44°25' E 008°50'0 0.0
2018-Nov-01 17:01N 44°25' E 008°50'0 0.0
2018-Nov-01 16:55N 44°25' E 008°50'0 0.0
2018-Nov-01 16:28N 44°25' E 008°50'0 0.0
2018-Nov-01 16:01N 44°25' E 008°50'0 0.0
2018-Nov-01 15:58N 44°25' E 008°50'0 0.0
2018-Nov-01 15:28N 44°25' E 008°50'0 0.0
2018-Nov-01 15:01N 44°25' E 008°50'0 0.0
2018-Nov-01 14:58N 44°25' E 008°50'0 0.0
2018-Nov-01 14:31N 44°25' E 008°50'0 0.0
2018-Nov-01 14:01N 44°25' E 008°50'0 0.0
2018-Nov-01 13:28N 44°25' E 008°50'0 0.0
2018-Nov-01 13:04N 44°25' E 008°50'0 0.0
2018-Nov-01 13:00N 44°25' E 008°50'0 0.0
2018-Nov-01 12:30N 44°25' E 008°50'0 0.0
2018-Nov-01 12:03N 44°25' E 008°50'0 0.0
2018-Nov-01 12:00N 44°25' E 008°50'0 0.0
2018-Nov-01 11:30N 44°25' E 008°50'0 0.0
2018-Nov-01 11:03N 44°25' E 008°50'0 0.0
2018-Nov-01 11:00N 44°25' E 008°50'0 0.0
2018-Nov-01 10:30N 44°25' E 008°50'0 0.0
2018-Nov-01 10:03N 44°25' E 008°50'0 0.0
2018-Nov-01 10:00N 44°25' E 008°50'0 0.0
2018-Nov-01 09:29N 44°25' E 008°50'0 0.0
2018-Nov-01 09:02N 44°25' E 008°50'0 0.0
2018-Nov-01 08:59N 44°25' E 008°50'0 0.0
2018-Nov-01 08:29N 44°25' E 008°50'0 0.0
2018-Nov-01 08:02N 44°25' E 008°50'0 0.0
2018-Nov-01 07:59N 44°25' E 008°50'0 0.0
2018-Nov-01 07:29N 44°25' E 008°50'0 0.0
2018-Nov-01 07:03N 44°25' E 008°50'0 0.1
2018-Nov-01 07:01N 44°25' E 008°50'0 0.0
2018-Nov-01 06:30N 44°25' E 008°50'0 0.0
2018-Nov-01 06:03N 44°25' E 008°50'0 0.0
2018-Nov-01 06:00N 44°25' E 008°50'0 0.0
2018-Nov-01 05:30N 44°25' E 008°50'0 0.0
2018-Nov-01 05:03N 44°25' E 008°50'0 0.0
2018-Nov-01 05:00N 44°25' E 008°50'0 0.0
2018-Nov-01 04:30N 44°25' E 008°50'0 0.0
2018-Nov-01 04:03N 44°25' E 008°50'0 0.0
2018-Nov-01 04:00N 44°25' E 008°50'0 0.0
2018-Nov-01 03:30N 44°25' E 008°50'0 0.0
2018-Nov-01 03:03N 44°25' E 008°50'0 0.0
2018-Nov-01 03:00N 44°25' E 008°50'0 0.0
2018-Nov-01 02:30N 44°25' E 008°50'0 0.0
2018-Nov-01 02:03N 44°25' E 008°50'0 0.0
2018-Nov-01 02:00N 44°25' E 008°50'0 0.0
2018-Nov-01 01:30N 44°25' E 008°50'0 0.0
2018-Nov-01 01:03N 44°25' E 008°50'0 0.0
2018-Nov-01 01:00N 44°25' E 008°50'0 0.0
2018-Nov-01 00:30N 44°25' E 008°50'0 0.0
2018-Nov-01 00:03N 44°25' E 008°50'0 0.0
2018-Nov-01 00:00N 44°25' E 008°50'0 0.0
2018-Oct-31 23:27N 44°25' E 008°50'0 0.0
2018-Oct-31 23:03N 44°25' E 008°50'0 0.0
2018-Oct-31 22:57N 44°25' E 008°50'0 0.0
2018-Oct-31 22:27N 44°25' E 008°50'0 0.0
2018-Oct-31 22:03N 44°25' E 008°50'0 0.0
2018-Oct-31 22:00N 44°25' E 008°50'0 0.0
2018-Oct-31 21:30N 44°25' E 008°50'0 0.0
2018-Oct-31 21:03N 44°25' E 008°50'0 0.0
2018-Oct-31 21:00N 44°25' E 008°50'0 0.0
2018-Oct-31 20:30N 44°25' E 008°50'0 0.0
2018-Oct-31 20:03N 44°25' E 008°50'0 0.0
2018-Oct-31 20:00N 44°25' E 008°50'0 0.0
2018-Oct-31 19:30N 44°25' E 008°50'0 0.0
2018-Oct-31 19:03N 44°25' E 008°50'0 0.0
2018-Oct-31 19:00N 44°25' E 008°50'0 0.0
2018-Oct-31 18:30N 44°25' E 008°50'0 0.0
2018-Oct-31 18:03N 44°25' E 008°50'0 0.0
2018-Oct-31 18:00N 44°25' E 008°50'0 0.0
2018-Oct-31 17:30N 44°25' E 008°50'0 0.0
2018-Oct-31 17:03N 44°25' E 008°50'0 0.0
2018-Oct-31 17:00N 44°25' E 008°50'0 0.0
2018-Oct-31 16:30N 44°25' E 008°50'0 0.0
2018-Oct-31 16:03N 44°25' E 008°50'0 0.0
2018-Oct-31 16:00N 44°25' E 008°50'0 0.1
2018-Oct-31 15:30N 44°25' E 008°50'1 2.9
2018-Oct-31 15:03N 44°25' E 008°48'0 3.8
2018-Oct-31 15:00N 44°24' E 008°48'2 3.0
2018-Oct-31 14:30N 44°23' E 008°47'1 2.3
2018-Oct-31 14:00N 44°23' E 008°46'1 2.8
2018-Oct-31 13:30N 44°22' E 008°44'1 2.8
2018-Oct-31 13:03N 44°22' E 008°42'0 3.0
2018-Oct-31 13:00N 44°21' E 008°42'1 2.4
2018-Oct-31 12:30N 44°20' E 008°41'2 4.8
2018-Oct-31 12:03N 44°21' E 008°44'0 5.9
2018-Oct-31 12:00N 44°21' E 008°45'1 2.4
2018-Oct-31 11:30N 44°22' E 008°46'0 0.4
2018-Oct-31 11:03N 44°22' E 008°46'0 3.8
2018-Oct-31 11:00N 44°22' E 008°46'2 4.1
2018-Oct-31 10:30N 44°24' E 008°47'2 4.3
2018-Oct-31 10:03N 44°25' E 008°50'0 4.2
2018-Oct-31 10:00N 44°25' E 008°50'0 0.3
2018-Oct-31 09:26N 44°25' E 008°50'0 0.0
2018-Oct-31 09:02N 44°25' E 008°50'0 0.0
2018-Oct-31 08:59N 44°25' E 008°50'0 0.0
2018-Oct-31 08:29N 44°25' E 008°50'0 0.0
2018-Oct-31 08:02N 44°25' E 008°50'0 0.0
2018-Oct-31 07:59N 44°25' E 008°50'0 0.0
2018-Oct-31 07:29N 44°25' E 008°50'0 0.0
2018-Oct-31 07:02N 44°25' E 008°50'0 0.0
2018-Oct-31 06:59N 44°25' E 008°50'0 0.0
2018-Oct-31 06:29N 44°25' E 008°50'0 0.0
2018-Oct-31 06:02N 44°25' E 008°50'0 0.0
2018-Oct-31 05:59N 44°25' E 008°50'0 0.0
2018-Oct-31 05:29N 44°25' E 008°50'0 0.0
2018-Oct-31 05:02N 44°25' E 008°50'0 0.0
2018-Oct-31 04:59N 44°25' E 008°50'0 0.0
2018-Oct-31 04:29N 44°25' E 008°50'0 0.0
2018-Oct-31 04:02N 44°25' E 008°50'0 0.0
2018-Oct-31 03:59N 44°25' E 008°50'0 0.0
2018-Oct-31 03:29N 44°25' E 008°50'0 0.0
2018-Oct-31 03:02N 44°25' E 008°50'0 0.0
2018-Oct-31 02:59N 44°25' E 008°50'0 0.0
2018-Oct-31 02:29N 44°25' E 008°50'0 0.0
2018-Oct-31 02:02N 44°25' E 008°50'0 0.0
2018-Oct-31 01:59N 44°25' E 008°50'0 0.0
2018-Oct-31 01:29N 44°25' E 008°50'0 0.0
2018-Oct-31 01:02N 44°25' E 008°50'0 0.0
2018-Oct-31 00:59N 44°25' E 008°50'0 0.0
2018-Oct-31 00:29N 44°25' E 008°50'0 0.0
2018-Oct-31 00:02N 44°25' E 008°50'0 0.0
2018-Oct-30 23:59N 44°25' E 008°50'0 0.0
2018-Oct-30 23:26N 44°25' E 008°50'0 0.0
2018-Oct-30 22:59N 44°25' E 008°50'0 0.0
2018-Oct-30 22:29N 44°25' E 008°50'0 0.0
2018-Oct-30 21:59N 44°25' E 008°50'0 0.0
2018-Oct-30 21:29N 44°25' E 008°50'0 0.0
2018-Oct-30 20:59N 44°25' E 008°50'0 0.0
2018-Oct-30 20:29N 44°25' E 008°50'0 0.0
2018-Oct-30 19:59N 44°25' E 008°50'0 0.0
2018-Oct-30 19:29N 44°25' E 008°50'0 0.0
2018-Oct-30 19:02N 44°25' E 008°50'0 0.0
2018-Oct-30 18:56N 44°25' E 008°50'0 0.0
2018-Oct-30 18:29N 44°25' E 008°50'0 0.0
2018-Oct-30 17:59N 44°25' E 008°50'0 0.0
2018-Oct-30 17:29N 44°25' E 008°50'0 0.0
2018-Oct-30 16:59N 44°25' E 008°50'0 0.0
2018-Oct-30 16:29N 44°25' E 008°50'0 0.0
2018-Oct-30 16:02N 44°25' E 008°50'0 0.0
2018-Oct-30 15:59N 44°25' E 008°50'0 0.0
2018-Oct-30 15:29N 44°25' E 008°50'0 0.0
2018-Oct-30 15:02N 44°25' E 008°50'0 0.0
2018-Oct-30 14:59N 44°25' E 008°50'0 0.0
2018-Oct-30 13:59N 44°25' E 008°50'0 0.0
2018-Oct-30 13:29N 44°25' E 008°50'0 0.0
2018-Oct-30 13:02N 44°25' E 008°50'0 0.0
2018-Oct-30 12:59N 44°25' E 008°50'0 0.0
2018-Oct-30 12:29N 44°25' E 008°50'0 0.0
2018-Oct-30 12:02N 44°25' E 008°50'0 0.0
2018-Oct-30 11:59N 44°25' E 008°50'0 0.0
2018-Oct-30 11:29N 44°25' E 008°50'0 0.0
2018-Oct-30 11:02N 44°25' E 008°50'0 0.0
2018-Oct-30 10:59N 44°25' E 008°50'0 0.0
2018-Oct-30 10:29N 44°25' E 008°50'0 0.0
2018-Oct-30 10:02N 44°25' E 008°50'0 0.0
2018-Oct-30 09:59N 44°25' E 008°50'0 0.0
2018-Oct-30 09:29N 44°25' E 008°50'0 0.0
2018-Oct-30 09:02N 44°25' E 008°50'0 0.0
2018-Oct-30 08:59N 44°25' E 008°50'0 0.0
2018-Oct-30 08:29N 44°25' E 008°50'0 0.0
2018-Oct-30 08:02N 44°25' E 008°50'0 0.0
2018-Oct-30 07:59N 44°25' E 008°50'0 0.0
2018-Oct-30 07:29N 44°25' E 008°50'0 0.0
2018-Oct-30 07:02N 44°25' E 008°50'0 0.0
2018-Oct-30 06:59N 44°25' E 008°50'0 0.0
2018-Oct-30 06:29N 44°25' E 008°50'0 0.0
2018-Oct-30 06:02N 44°25' E 008°50'0 0.0
2018-Oct-30 05:59N 44°25' E 008°50'0 0.0
2018-Oct-30 05:29N 44°25' E 008°50'0 0.0
2018-Oct-30 05:02N 44°25' E 008°50'0 0.0
2018-Oct-30 04:59N 44°25' E 008°50'  

Dump ship's entire track history